sensor_id;sensor_type;location;lat;lon;timestamp;pressure;altitude;pressure_sealevel;temperature;humidity
77939;BME280;67136;47.546;21.630;2023-03-08T00:01:56;98914.69;;;5.85;85.95
77939;BME280;67136;47.546;21.630;2023-03-08T00:04:58;98917.97;;;5.87;85.97
77939;BME280;67136;47.546;21.630;2023-03-08T00:08:02;98902.41;;;5.87;85.86
77939;BME280;67136;47.546;21.630;2023-03-08T00:11:06;98906.09;;;5.84;85.94
77939;BME280;67136;47.546;21.630;2023-03-08T00:14:09;98897.50;;;5.84;85.94
77939;BME280;67136;47.546;21.630;2023-03-08T00:17:12;98895.87;;;5.83;85.96
77939;BME280;67136;47.546;21.630;2023-03-08T00:20:14;98900.59;;;5.78;86.12
77939;BME280;67136;47.546;21.630;2023-03-08T00:23:17;98889.25;;;5.79;86.03
77939;BME280;67136;47.546;21.630;2023-03-08T00:26:20;98896.59;;;5.74;86.23
77939;BME280;67136;47.546;21.630;2023-03-08T00:29:23;98893.31;;;5.72;86.26
77939;BME280;67136;47.546;21.630;2023-03-08T00:32:26;98889.09;;;5.71;86.27
77939;BME280;67136;47.546;21.630;2023-03-08T00:35:29;98883.22;;;5.69;86.25
77939;BME280;67136;47.546;21.630;2023-03-08T00:38:33;98879.22;;;5.65;86.41
77939;BME280;67136;47.546;21.630;2023-03-08T00:41:37;98877.47;;;5.65;86.41
77939;BME280;67136;47.546;21.630;2023-03-08T00:44:40;98882.34;;;5.59;86.62
77939;BME280;67136;47.546;21.630;2023-03-08T00:47:42;98875.78;;;5.55;86.79
77939;BME280;67136;47.546;21.630;2023-03-08T00:50:45;98877.44;;;5.56;86.73
77939;BME280;67136;47.546;21.630;2023-03-08T00:53:48;98864.47;;;5.56;86.73
77939;BME280;67136;47.546;21.630;2023-03-08T00:56:50;98871.41;;;5.55;86.71
77939;BME280;67136;47.546;21.630;2023-03-08T00:59:53;98860.47;;;5.52;86.95
77939;BME280;67136;47.546;21.630;2023-03-08T01:02:56;98857.37;;;5.58;86.61
77939;BME280;67136;47.546;21.630;2023-03-08T01:06:06;98854.81;;;5.67;86.23
77939;BME280;67136;47.546;21.630;2023-03-08T01:09:10;98860.31;;;5.74;85.95
77939;BME280;67136;47.546;21.630;2023-03-08T01:12:13;98853.50;;;5.73;85.93
77939;BME280;67136;47.546;21.630;2023-03-08T01:15:16;98860.34;;;5.83;85.53
77939;BME280;67136;47.546;21.630;2023-03-08T01:18:19;98847.38;;;5.83;85.43
77939;BME280;67136;47.546;21.630;2023-03-08T01:21:23;98840.94;;;5.78;85.60
77939;BME280;67136;47.546;21.630;2023-03-08T01:24:26;98843.13;;;5.73;85.93
77939;BME280;67136;47.546;21.630;2023-03-08T01:27:31;98842.31;;;5.82;85.59
77939;BME280;67136;47.546;21.630;2023-03-08T01:30:33;98846.59;;;5.83;85.46
77939;BME280;67136;47.546;21.630;2023-03-08T01:33:38;98847.25;;;5.85;85.40
77939;BME280;67136;47.546;21.630;2023-03-08T01:36:41;98847.84;;;5.98;84.84
77939;BME280;67136;47.546;21.630;2023-03-08T01:39:43;98844.84;;;5.93;85.04
77939;BME280;67136;47.546;21.630;2023-03-08T01:42:46;98846.19;;;5.87;85.23
77939;BME280;67136;47.546;21.630;2023-03-08T01:46:01;98837.97;;;5.82;85.50
77939;BME280;67136;47.546;21.630;2023-03-08T01:49:21;98847.31;;;5.94;85.13
77939;BME280;67136;47.546;21.630;2023-03-08T01:52:40;98854.12;;;5.95;84.94
77939;BME280;67136;47.546;21.630;2023-03-08T01:55:44;98858.09;;;5.99;84.72
77939;BME280;67136;47.546;21.630;2023-03-08T01:58:48;98849.34;;;6.00;84.70
77939;BME280;67136;47.546;21.630;2023-03-08T02:01:52;98852.50;;;6.04;84.54
77939;BME280;67136;47.546;21.630;2023-03-08T02:04:55;98851.13;;;6.00;84.71
77939;BME280;67136;47.546;21.630;2023-03-08T02:07:59;98853.84;;;5.98;84.82
77939;BME280;67136;47.546;21.630;2023-03-08T02:11:04;98848.09;;;5.95;85.02
77939;BME280;67136;47.546;21.630;2023-03-08T02:14:07;98855.59;;;5.88;85.42
77939;BME280;67136;47.546;21.630;2023-03-08T02:17:11;98849.72;;;5.86;85.44
77939;BME280;67136;47.546;21.630;2023-03-08T02:20:22;98863.94;;;5.92;85.35
77939;BME280;67136;47.546;21.630;2023-03-08T02:23:27;98856.56;;;5.87;85.40
77939;BME280;67136;47.546;21.630;2023-03-08T02:26:32;98864.47;;;5.86;85.49
77939;BME280;67136;47.546;21.630;2023-03-08T02:29:39;98860.88;;;5.77;86.03
77939;BME280;67136;47.546;21.630;2023-03-08T02:32:42;98861.34;;;5.62;86.68
77939;BME280;67136;47.546;21.630;2023-03-08T02:35:45;98866.09;;;5.57;87.07
77939;BME280;67136;47.546;21.630;2023-03-08T02:38:48;98873.00;;;5.47;87.63
77939;BME280;67136;47.546;21.630;2023-03-08T02:41:50;98872.75;;;5.50;87.86
77939;BME280;67136;47.546;21.630;2023-03-08T02:44:53;98866.50;;;5.52;87.79
77939;BME280;67136;47.546;21.630;2023-03-08T02:47:55;98872.87;;;5.48;87.96
77939;BME280;67136;47.546;21.630;2023-03-08T02:50:58;98871.88;;;5.40;88.14
77939;BME280;67136;47.546;21.630;2023-03-08T02:54:01;98879.47;;;5.32;88.59
77939;BME280;67136;47.546;21.630;2023-03-08T02:57:04;98880.87;;;5.36;88.39
77939;BME280;67136;47.546;21.630;2023-03-08T03:00:09;98877.06;;;5.40;88.39
77939;BME280;67136;47.546;21.630;2023-03-08T03:03:12;98870.81;;;5.42;88.24
77939;BME280;67136;47.546;21.630;2023-03-08T03:06:16;98888.22;;;5.31;88.62
77939;BME280;67136;47.546;21.630;2023-03-08T03:09:19;98892.97;;;5.26;88.90
77939;BME280;67136;47.546;21.630;2023-03-08T03:12:22;98899.62;;;5.07;89.43
77939;BME280;67136;47.546;21.630;2023-03-08T03:15:25;98901.75;;;5.14;89.75
77939;BME280;67136;47.546;21.630;2023-03-08T03:18:28;98909.66;;;5.12;89.53
77939;BME280;67136;47.546;21.630;2023-03-08T03:21:31;98902.22;;;5.07;89.76
77939;BME280;67136;47.546;21.630;2023-03-08T03:24:34;98906.41;;;5.20;89.31
77939;BME280;67136;47.546;21.630;2023-03-08T03:27:39;98905.66;;;5.29;88.88
77939;BME280;67136;47.546;21.630;2023-03-08T03:30:42;98907.12;;;5.52;87.91
77939;BME280;67136;47.546;21.630;2023-03-08T03:33:46;98899.81;;;5.57;87.43
77939;BME280;67136;47.546;21.630;2023-03-08T03:36:49;98893.91;;;5.55;87.60
77939;BME280;67136;47.546;21.630;2023-03-08T03:39:52;98893.63;;;5.48;87.61
77939;BME280;67136;47.546;21.630;2023-03-08T03:42:55;98896.78;;;5.52;87.59
77939;BME280;67136;47.546;21.630;2023-03-08T03:45:59;98921.28;;;5.48;87.60
77939;BME280;67136;47.546;21.630;2023-03-08T03:49:03;98926.19;;;5.41;87.87
77939;BME280;67136;47.546;21.630;2023-03-08T03:52:07;98937.19;;;5.54;87.56
77939;BME280;67136;47.546;21.630;2023-03-08T03:55:10;98928.41;;;5.46;87.72
77939;BME280;67136;47.546;21.630;2023-03-08T03:58:14;98930.44;;;5.42;87.75
77939;BME280;67136;47.546;21.630;2023-03-08T04:01:22;98928.41;;;5.46;87.55
77939;BME280;67136;47.546;21.630;2023-03-08T04:04:26;98937.81;;;5.47;87.38
77939;BME280;67136;47.546;21.630;2023-03-08T04:07:29;98935.97;;;5.38;87.62
77939;BME280;67136;47.546;21.630;2023-03-08T04:10:32;98942.56;;;5.42;87.66
77939;BME280;67136;47.546;21.630;2023-03-08T04:13:35;98944.56;;;5.38;87.74
77939;BME280;67136;47.546;21.630;2023-03-08T04:16:39;98951.41;;;5.39;87.68
77939;BME280;67136;47.546;21.630;2023-03-08T04:19:42;98952.22;;;5.40;87.66
77939;BME280;67136;47.546;21.630;2023-03-08T04:22:46;98960.00;;;5.40;87.85
77939;BME280;67136;47.546;21.630;2023-03-08T04:25:49;98963.53;;;5.39;87.85
77939;BME280;67136;47.546;21.630;2023-03-08T04:28:53;98957.78;;;5.35;88.03
77939;BME280;67136;47.546;21.630;2023-03-08T04:31:58;98962.09;;;5.46;87.90
77939;BME280;67136;47.546;21.630;2023-03-08T04:35:03;98957.84;;;5.45;87.91
77939;BME280;67136;47.546;21.630;2023-03-08T04:38:06;98961.84;;;5.49;87.76
77939;BME280;67136;47.546;21.630;2023-03-08T04:41:11;98965.25;;;5.49;87.88
77939;BME280;67136;47.546;21.630;2023-03-08T04:44:14;98963.03;;;5.45;88.08
77939;BME280;67136;47.546;21.630;2023-03-08T04:47:18;98970.81;;;5.45;88.27
77939;BME280;67136;47.546;21.630;2023-03-08T04:50:20;98963.28;;;5.42;88.49
77939;BME280;67136;47.546;21.630;2023-03-08T04:53:26;98973.91;;;5.39;88.68
77939;BME280;67136;47.546;21.630;2023-03-08T04:56:29;98964.03;;;5.33;88.91
77939;BME280;67136;47.546;21.630;2023-03-08T04:59:33;98974.97;;;5.36;89.14
77939;BME280;67136;47.546;21.630;2023-03-08T05:02:36;98976.31;;;5.31;89.46
77939;BME280;67136;47.546;21.630;2023-03-08T05:05:48;98985.28;;;5.27;89.68
77939;BME280;67136;47.546;21.630;2023-03-08T05:08:52;98982.69;;;5.27;89.97
77939;BME280;67136;47.546;21.630;2023-03-08T05:11:56;98983.88;;;5.23;90.05
77939;BME280;67136;47.546;21.630;2023-03-08T05:15:00;98979.66;;;5.22;90.40
77939;BME280;67136;47.546;21.630;2023-03-08T05:18:03;98988.37;;;5.21;90.49
77939;BME280;67136;47.546;21.630;2023-03-08T05:21:10;98992.84;;;5.19;90.70
77939;BME280;67136;47.546;21.630;2023-03-08T05:24:13;98996.16;;;5.21;90.83
77939;BME280;67136;47.546;21.630;2023-03-08T05:27:16;98997.09;;;5.20;90.87
77939;BME280;67136;47.546;21.630;2023-03-08T05:30:19;98999.53;;;5.21;90.76
77939;BME280;67136;47.546;21.630;2023-03-08T05:33:23;98999.41;;;5.23;90.67
77939;BME280;67136;47.546;21.630;2023-03-08T05:36:26;99005.31;;;5.25;90.51
77939;BME280;67136;47.546;21.630;2023-03-08T05:39:29;99004.13;;;5.29;90.33
77939;BME280;67136;47.546;21.630;2023-03-08T05:42:33;99008.78;;;5.35;90.16
77939;BME280;67136;47.546;21.630;2023-03-08T05:45:36;99001.97;;;5.34;90.11
77939;BME280;67136;47.546;21.630;2023-03-08T05:48:39;99004.69;;;5.32;90.04
77939;BME280;67136;47.546;21.630;2023-03-08T05:51:42;99007.16;;;5.34;89.92
77939;BME280;67136;47.546;21.630;2023-03-08T05:54:45;99009.75;;;5.34;89.86
77939;BME280;67136;47.546;21.630;2023-03-08T05:57:48;99013.50;;;5.41;89.50
77939;BME280;67136;47.546;21.630;2023-03-08T06:00:52;98997.94;;;5.41;89.34
77939;BME280;67136;47.546;21.630;2023-03-08T06:03:56;98992.50;;;5.44;89.11
77939;BME280;67136;47.546;21.630;2023-03-08T06:06:59;98979.72;;;5.52;88.86
77939;BME280;67136;47.546;21.630;2023-03-08T06:10:03;98988.19;;;5.54;88.63
77939;BME280;67136;47.546;21.630;2023-03-08T06:13:06;98999.06;;;5.48;88.65
77939;BME280;67136;47.546;21.630;2023-03-08T06:16:10;99001.56;;;5.49;88.56
77939;BME280;67136;47.546;21.630;2023-03-08T06:19:13;99005.06;;;5.48;88.55
77939;BME280;67136;47.546;21.630;2023-03-08T06:22:17;99009.69;;;5.45;88.54
77939;BME280;67136;47.546;21.630;2023-03-08T06:25:19;99016.97;;;5.51;88.35
77939;BME280;67136;47.546;21.630;2023-03-08T06:28:24;99010.34;;;5.58;88.06
77939;BME280;67136;47.546;21.630;2023-03-08T06:31:27;99017.72;;;5.62;87.96
77939;BME280;67136;47.546;21.630;2023-03-08T06:34:31;99013.69;;;5.69;87.47
77939;BME280;67136;47.546;21.630;2023-03-08T06:37:35;99018.87;;;5.69;87.33
77939;BME280;67136;47.546;21.630;2023-03-08T06:40:38;99037.28;;;5.87;86.67
77939;BME280;67136;47.546;21.630;2023-03-08T06:43:41;99048.87;;;5.83;86.55
77939;BME280;67136;47.546;21.630;2023-03-08T06:46:45;99065.13;;;5.85;86.28
77939;BME280;67136;47.546;21.630;2023-03-08T06:49:48;99079.34;;;5.90;86.29
77939;BME280;67136;47.546;21.630;2023-03-08T06:52:51;99085.13;;;5.94;86.01
77939;BME280;67136;47.546;21.630;2023-03-08T06:55:54;99091.06;;;6.26;84.83
77939;BME280;67136;47.546;21.630;2023-03-08T06:58:57;99102.56;;;6.63;83.54
77939;BME280;67136;47.546;21.630;2023-03-08T07:02:00;99111.56;;;6.59;83.25
77939;BME280;67136;47.546;21.630;2023-03-08T07:05:03;99119.66;;;6.66;82.97
77939;BME280;67136;47.546;21.630;2023-03-08T07:08:07;99123.41;;;6.82;81.85
77939;BME280;67136;47.546;21.630;2023-03-08T07:11:10;99130.63;;;6.79;82.04
77939;BME280;67136;47.546;21.630;2023-03-08T07:14:13;99128.44;;;6.74;82.38
77939;BME280;67136;47.546;21.630;2023-03-08T07:17:15;99132.00;;;6.73;82.46
77939;BME280;67136;47.546;21.630;2023-03-08T07:20:19;99137.09;;;6.54;82.99
77939;BME280;67136;47.546;21.630;2023-03-08T07:23:23;99140.06;;;6.70;82.44
77939;BME280;67136;47.546;21.630;2023-03-08T07:26:25;99142.19;;;6.95;81.67
77939;BME280;67136;47.546;21.630;2023-03-08T07:29:28;99155.94;;;7.16;80.36
77939;BME280;67136;47.546;21.630;2023-03-08T07:32:31;99166.78;;;6.91;80.52
77939;BME280;67136;47.546;21.630;2023-03-08T07:35:34;99178.31;;;6.98;79.86
77939;BME280;67136;47.546;21.630;2023-03-08T07:38:36;99180.03;;;7.18;79.08
77939;BME280;67136;47.546;21.630;2023-03-08T07:41:39;99182.69;;;7.07;78.62
77939;BME280;67136;47.546;21.630;2023-03-08T07:44:42;99185.63;;;7.14;78.54
77939;BME280;67136;47.546;21.630;2023-03-08T07:47:45;99180.31;;;7.34;77.76
77939;BME280;67136;47.546;21.630;2023-03-08T07:50:47;99197.41;;;7.27;77.08
77939;BME280;67136;47.546;21.630;2023-03-08T07:53:51;99195.41;;;7.40;75.99
77939;BME280;67136;47.546;21.630;2023-03-08T07:56:53;99189.16;;;7.72;74.94
77939;BME280;67136;47.546;21.630;2023-03-08T07:59:57;99197.41;;;8.15;73.51
77939;BME280;67136;47.546;21.630;2023-03-08T08:02:59;99199.31;;;8.13;72.20
77939;BME280;67136;47.546;21.630;2023-03-08T08:06:04;99201.78;;;8.43;71.90
77939;BME280;67136;47.546;21.630;2023-03-08T08:09:08;99198.78;;;8.38;71.30
77939;BME280;67136;47.546;21.630;2023-03-08T08:12:11;99201.78;;;8.24;70.36
77939;BME280;67136;47.546;21.630;2023-03-08T08:15:14;99197.41;;;8.15;69.38
77939;BME280;67136;47.546;21.630;2023-03-08T08:18:18;99189.44;;;8.35;68.39
77939;BME280;67136;47.546;21.630;2023-03-08T08:21:21;99192.41;;;8.59;66.28
77939;BME280;67136;47.546;21.630;2023-03-08T08:24:25;99200.84;;;8.90;64.76
77939;BME280;67136;47.546;21.630;2023-03-08T08:27:27;99214.03;;;9.16;63.88
77939;BME280;67136;47.546;21.630;2023-03-08T08:30:30;99213.84;;;9.81;61.98
77939;BME280;67136;47.546;21.630;2023-03-08T08:33:33;99222.19;;;11.14;58.66
77939;BME280;67136;47.546;21.630;2023-03-08T08:36:36;99217.69;;;10.65;58.28
77939;BME280;67136;47.546;21.630;2023-03-08T08:39:39;99218.38;;;9.96;59.44
77939;BME280;67136;47.546;21.630;2023-03-08T08:42:42;99230.38;;;9.72;59.88
77939;BME280;67136;47.546;21.630;2023-03-08T08:45:46;99235.91;;;9.05;59.28
77939;BME280;67136;47.546;21.630;2023-03-08T08:48:49;99228.06;;;9.42;59.51
77939;BME280;67136;47.546;21.630;2023-03-08T08:51:52;99229.69;;;9.70;58.17
77939;BME280;67136;47.546;21.630;2023-03-08T08:54:54;99231.19;;;9.90;56.77
77939;BME280;67136;47.546;21.630;2023-03-08T08:58:00;99234.88;;;11.01;53.62
77939;BME280;67136;47.546;21.630;2023-03-08T09:01:03;99234.75;;;11.44;51.32
77939;BME280;67136;47.546;21.630;2023-03-08T09:04:05;99237.56;;;12.89;49.27
77939;BME280;67136;47.546;21.630;2023-03-08T09:07:08;99240.91;;;13.84;46.06
77939;BME280;67136;47.546;21.630;2023-03-08T09:10:11;99237.88;;;15.00;43.48
77939;BME280;67136;47.546;21.630;2023-03-08T09:13:14;99239.06;;;15.56;38.97
77939;BME280;67136;47.546;21.630;2023-03-08T09:19:21;99236.84;;;14.86;39.62
77939;BME280;67136;47.546;21.630;2023-03-08T09:22:26;99238.75;;;13.88;41.02
77939;BME280;67136;47.546;21.630;2023-03-08T09:25:28;99241.72;;;13.46;43.00
77939;BME280;67136;47.546;21.630;2023-03-08T09:28:32;99252.19;;;12.75;44.10
77939;BME280;67136;47.546;21.630;2023-03-08T09:31:37;99263.19;;;12.55;44.32
77939;BME280;67136;47.546;21.630;2023-03-08T09:34:40;99260.50;;;11.57;45.44
77939;BME280;67136;47.546;21.630;2023-03-08T09:37:43;99260.16;;;11.18;45.95
77939;BME280;67136;47.546;21.630;2023-03-08T09:40:55;99264.38;;;11.45;45.03
77939;BME280;67136;47.546;21.630;2023-03-08T09:51:10;99253.34;;;12.81;41.77
77939;BME280;67136;47.546;21.630;2023-03-08T09:54:20;99257.91;;;13.57;40.96
77939;BME280;67136;47.546;21.630;2023-03-08T09:57:29;99236.34;;;14.23;37.84
77939;BME280;67136;47.546;21.630;2023-03-08T10:00:35;99259.25;;;14.82;36.42
77939;BME280;67136;47.546;21.630;2023-03-08T10:04:07;99252.50;;;15.32;31.83
77939;BME280;67136;47.546;21.630;2023-03-08T10:07:21;99242.53;;;13.85;33.53
77939;BME280;67136;47.546;21.630;2023-03-08T10:10:40;99243.16;;;14.40;34.74
77939;BME280;67136;47.546;21.630;2023-03-08T10:13:50;99227.22;;;13.89;35.80
77939;BME280;67136;47.546;21.630;2023-03-08T10:17:04;99231.06;;;14.68;35.48
77939;BME280;67136;47.546;21.630;2023-03-08T10:23:29;99223.87;;;17.05;29.67
77939;BME280;67136;47.546;21.630;2023-03-08T10:26:33;99216.16;;;17.04;28.70
77939;BME280;67136;47.546;21.630;2023-03-08T10:29:36;99209.78;;;17.26;27.29
77939;BME280;67136;47.546;21.630;2023-03-08T10:32:43;99212.97;;;18.09;27.16
77939;BME280;67136;47.546;21.630;2023-03-08T10:36:02;99200.97;;;18.33;27.39
77939;BME280;67136;47.546;21.630;2023-03-08T10:39:09;99204.03;;;19.08;25.65
77939;BME280;67136;47.546;21.630;2023-03-08T10:42:15;99203.66;;;18.85;25.69
77939;BME280;67136;47.546;21.630;2023-03-08T10:45:20;99205.03;;;19.77;24.99
77939;BME280;67136;47.546;21.630;2023-03-08T10:48:23;99210.09;;;19.41;24.68
77939;BME280;67136;47.546;21.630;2023-03-08T10:51:27;99221.00;;;18.68;25.46
77939;BME280;67136;47.546;21.630;2023-03-08T10:54:30;99212.78;;;18.24;25.84
77939;BME280;67136;47.546;21.630;2023-03-08T10:57:33;99214.59;;;17.16;27.11
77939;BME280;67136;47.546;21.630;2023-03-08T11:00:41;99208.00;;;16.99;27.88
77939;BME280;67136;47.546;21.630;2023-03-08T11:03:45;99208.94;;;16.85;28.42
77939;BME280;67136;47.546;21.630;2023-03-08T11:06:48;99213.66;;;15.84;30.18
77939;BME280;67136;47.546;21.630;2023-03-08T11:09:51;99212.34;;;15.94;30.63
77939;BME280;67136;47.546;21.630;2023-03-08T11:13:20;99216.00;;;15.29;31.65
77939;BME280;67136;47.546;21.630;2023-03-08T11:19:58;99189.50;;;13.51;35.56
77939;BME280;67136;47.546;21.630;2023-03-08T11:23:14;99202.22;;;12.77;36.72
77939;BME280;67136;47.546;21.630;2023-03-08T11:37:25;99185.84;;;12.26;38.53
77939;BME280;67136;47.546;21.630;2023-03-08T11:40:44;99184.38;;;12.00;39.33
77939;BME280;67136;47.546;21.630;2023-03-08T11:54:07;99176.00;;;12.52;39.85
77939;BME280;67136;47.546;21.630;2023-03-08T11:57:15;99165.38;;;12.46;39.98
77939;BME280;67136;47.546;21.630;2023-03-08T12:00:31;99164.91;;;12.10;39.63
77939;BME280;67136;47.546;21.630;2023-03-08T12:03:53;99168.47;;;12.01;39.93
77939;BME280;67136;47.546;21.630;2023-03-08T12:06:59;99174.97;;;12.78;37.95
77939;BME280;67136;47.546;21.630;2023-03-08T12:10:36;99165.16;;;13.26;36.69
77939;BME280;67136;47.546;21.630;2023-03-08T12:13:47;99163.91;;;12.52;38.02
77939;BME280;67136;47.546;21.630;2023-03-08T12:20:12;99151.47;;;12.92;37.65
77939;BME280;67136;47.546;21.630;2023-03-08T12:27:13;99149.41;;;12.80;37.59
77939;BME280;67136;47.546;21.630;2023-03-08T12:30:43;99153.84;;;13.26;36.43
77939;BME280;67136;47.546;21.630;2023-03-08T12:33:52;99148.37;;;13.05;36.96
77939;BME280;67136;47.546;21.630;2023-03-08T12:36:55;99148.81;;;12.45;37.93
77939;BME280;67136;47.546;21.630;2023-03-08T12:40:05;99153.59;;;13.13;36.98
77939;BME280;67136;47.546;21.630;2023-03-08T12:46:21;99156.63;;;12.78;36.13
77939;BME280;67136;47.546;21.630;2023-03-08T12:49:35;99157.69;;;12.44;37.13
77939;BME280;67136;47.546;21.630;2023-03-08T12:52:38;99149.66;;;12.06;37.67
77939;BME280;67136;47.546;21.630;2023-03-08T12:55:42;99142.91;;;12.60;37.22
77939;BME280;67136;47.546;21.630;2023-03-08T12:58:52;99139.22;;;12.85;36.15
77939;BME280;67136;47.546;21.630;2023-03-08T13:05:27;99137.13;;;12.72;36.29
77939;BME280;67136;47.546;21.630;2023-03-08T13:08:38;99135.97;;;12.75;36.41
77939;BME280;67136;47.546;21.630;2023-03-08T13:11:49;99130.50;;;12.29;36.79
77939;BME280;67136;47.546;21.630;2023-03-08T13:18:18;99131.59;;;12.59;36.20
77939;BME280;67136;47.546;21.630;2023-03-08T13:21:32;99129.19;;;12.17;36.65
77939;BME280;67136;47.546;21.630;2023-03-08T13:24:43;99128.22;;;12.10;37.19
77939;BME280;67136;47.546;21.630;2023-03-08T13:28:20;99117.91;;;12.09;37.09
77939;BME280;67136;47.546;21.630;2023-03-08T13:31:28;99113.12;;;12.28;36.62
77939;BME280;67136;47.546;21.630;2023-03-08T13:34:32;99114.44;;;12.08;36.90
77939;BME280;67136;47.546;21.630;2023-03-08T13:37:36;99103.31;;;12.14;37.21
77939;BME280;67136;47.546;21.630;2023-03-08T13:40:50;99108.87;;;12.11;37.54
77939;BME280;67136;47.546;21.630;2023-03-08T13:43:59;99107.09;;;12.04;37.87
77939;BME280;67136;47.546;21.630;2023-03-08T13:47:08;99104.97;;;11.83;38.14
77939;BME280;67136;47.546;21.630;2023-03-08T13:53:36;99099.41;;;12.02;37.67
77939;BME280;67136;47.546;21.630;2023-03-08T13:56:39;99101.34;;;12.16;36.94
77939;BME280;67136;47.546;21.630;2023-03-08T13:59:50;99104.31;;;12.05;36.45
77939;BME280;67136;47.546;21.630;2023-03-08T14:02:53;99100.88;;;11.97;36.32
77939;BME280;67136;47.546;21.630;2023-03-08T14:05:57;99101.66;;;12.13;36.34
77939;BME280;67136;47.546;21.630;2023-03-08T14:08:59;99088.25;;;12.08;36.63
77939;BME280;67136;47.546;21.630;2023-03-08T14:12:06;99087.59;;;11.98;36.99
77939;BME280;67136;47.546;21.630;2023-03-08T14:15:16;99084.84;;;11.76;37.84
77939;BME280;67136;47.546;21.630;2023-03-08T14:18:27;99073.19;;;11.86;37.85
77939;BME280;67136;47.546;21.630;2023-03-08T14:21:30;99076.00;;;12.72;36.75
77939;BME280;67136;47.546;21.630;2023-03-08T14:24:34;99079.81;;;13.00;35.94
77939;BME280;67136;47.546;21.630;2023-03-08T14:27:41;99087.06;;;12.43;37.10
77939;BME280;67136;47.546;21.630;2023-03-08T14:30:46;99077.09;;;12.30;37.19
77939;BME280;67136;47.546;21.630;2023-03-08T14:33:58;99075.44;;;12.21;37.59
77939;BME280;67136;47.546;21.630;2023-03-08T14:37:28;99068.59;;;12.12;38.07
77939;BME280;67136;47.546;21.630;2023-03-08T14:40:33;99068.41;;;12.22;38.11
77939;BME280;67136;47.546;21.630;2023-03-08T14:43:39;99063.19;;;11.98;38.71
77939;BME280;67136;47.546;21.630;2023-03-08T14:46:42;99058.75;;;12.06;39.02
77939;BME280;67136;47.546;21.630;2023-03-08T14:50:16;99050.28;;;12.04;39.25
77939;BME280;67136;47.546;21.630;2023-03-08T14:53:36;99047.00;;;11.86;39.61
77939;BME280;67136;47.546;21.630;2023-03-08T14:56:39;99037.88;;;11.74;40.20
77939;BME280;67136;47.546;21.630;2023-03-08T14:59:43;99028.69;;;11.78;40.04
77939;BME280;67136;47.546;21.630;2023-03-08T15:02:46;99030.63;;;11.76;40.10
77939;BME280;67136;47.546;21.630;2023-03-08T15:05:48;99036.88;;;11.67;40.57
77939;BME280;67136;47.546;21.630;2023-03-08T15:08:52;99028.00;;;11.52;40.77
77939;BME280;67136;47.546;21.630;2023-03-08T15:11:55;99015.91;;;11.59;40.99
77939;BME280;67136;47.546;21.630;2023-03-08T15:15:01;99005.59;;;11.42;40.82
77939;BME280;67136;47.546;21.630;2023-03-08T15:18:04;99010.66;;;11.35;40.51
77939;BME280;67136;47.546;21.630;2023-03-08T15:21:11;99005.25;;;11.28;40.38
77939;BME280;67136;47.546;21.630;2023-03-08T15:24:16;98990.84;;;11.24;40.76
77939;BME280;67136;47.546;21.630;2023-03-08T15:27:20;98983.16;;;11.23;40.66
77939;BME280;67136;47.546;21.630;2023-03-08T15:30:24;98983.84;;;11.17;40.83
77939;BME280;67136;47.546;21.630;2023-03-08T15:33:27;98984.47;;;11.11;40.51
77939;BME280;67136;47.546;21.630;2023-03-08T15:36:30;98991.81;;;11.07;40.79
77939;BME280;67136;47.546;21.630;2023-03-08T15:39:36;98983.78;;;11.01;41.17
77939;BME280;67136;47.546;21.630;2023-03-08T15:42:38;98983.47;;;10.96;41.68
77939;BME280;67136;47.546;21.630;2023-03-08T15:45:42;98990.00;;;10.92;42.41
77939;BME280;67136;47.546;21.630;2023-03-08T15:48:45;98991.62;;;10.85;43.22
77939;BME280;67136;47.546;21.630;2023-03-08T15:51:47;98987.34;;;10.76;43.92
77939;BME280;67136;47.546;21.630;2023-03-08T15:54:50;98990.59;;;10.70;44.57
77939;BME280;67136;47.546;21.630;2023-03-08T15:57:53;98998.25;;;10.63;44.83
77939;BME280;67136;47.546;21.630;2023-03-08T16:00:56;98991.84;;;10.58;45.31
77939;BME280;67136;47.546;21.630;2023-03-08T16:03:58;98999.19;;;10.54;45.62
77939;BME280;67136;47.546;21.630;2023-03-08T16:07:01;99001.47;;;10.49;46.10
77939;BME280;67136;47.546;21.630;2023-03-08T16:10:07;98998.66;;;10.43;46.93
77939;BME280;67136;47.546;21.630;2023-03-08T16:13:09;98997.66;;;10.36;47.86
77939;BME280;67136;47.546;21.630;2023-03-08T16:16:13;99004.63;;;10.27;48.81
77939;BME280;67136;47.546;21.630;2023-03-08T16:19:15;99001.00;;;10.20;49.55
77939;BME280;67136;47.546;21.630;2023-03-08T16:22:18;99000.13;;;10.12;50.11
77939;BME280;67136;47.546;21.630;2023-03-08T16:25:21;99006.94;;;10.04;51.02
77939;BME280;67136;47.546;21.630;2023-03-08T16:28:24;98997.75;;;10.00;51.92
77939;BME280;67136;47.546;21.630;2023-03-08T16:31:26;99000.69;;;9.97;53.01
77939;BME280;67136;47.546;21.630;2023-03-08T16:34:29;99009.78;;;9.93;53.81
77939;BME280;67136;47.546;21.630;2023-03-08T16:37:32;99015.63;;;9.87;54.85
77939;BME280;67136;47.546;21.630;2023-03-08T16:40:36;99022.28;;;9.82;56.18
77939;BME280;67136;47.546;21.630;2023-03-08T16:43:40;99020.56;;;9.73;57.10
77939;BME280;67136;47.546;21.630;2023-03-08T16:46:51;99033.41;;;9.66;58.49
77939;BME280;67136;47.546;21.630;2023-03-08T16:49:54;99033.72;;;9.63;59.56
77939;BME280;67136;47.546;21.630;2023-03-08T16:52:57;99036.78;;;9.59;60.65
77939;BME280;67136;47.546;21.630;2023-03-08T16:56:00;99031.41;;;9.60;61.32
77939;BME280;67136;47.546;21.630;2023-03-08T16:59:03;99020.47;;;9.57;61.79
77939;BME280;67136;47.546;21.630;2023-03-08T17:02:12;99020.78;;;9.54;62.09
77939;BME280;67136;47.546;21.630;2023-03-08T17:05:15;99022.84;;;9.50;62.91
77939;BME280;67136;47.546;21.630;2023-03-08T17:08:17;99010.13;;;9.47;63.37
77939;BME280;67136;47.546;21.630;2023-03-08T17:11:22;99004.38;;;9.44;63.99
77939;BME280;67136;47.546;21.630;2023-03-08T17:14:25;99003.66;;;9.34;64.60